createdAt,value
2023-02-19T00:00:36.428Z,1005.14
2023-02-19T00:01:36.425Z,1005.17
2023-02-19T00:02:36.398Z,1005.15
2023-02-19T00:03:36.622Z,1005.18
2023-02-19T00:04:36.421Z,1005.06
2023-02-19T00:05:36.387Z,1005.08
2023-02-19T00:06:36.394Z,1005.14
2023-02-19T00:07:36.814Z,1005.10
2023-02-19T00:08:36.720Z,1005.02
2023-02-19T00:09:36.354Z,1005.16
2023-02-19T00:10:36.345Z,1005.05
2023-02-19T00:11:36.344Z,1005.07
2023-02-19T00:12:36.336Z,1005.06
2023-02-19T00:13:36.342Z,1005.02
2023-02-19T00:14:36.321Z,1005.09
2023-02-19T00:15:36.346Z,1005.04
2023-02-19T00:16:37.183Z,1005.10
2023-02-19T00:17:36.306Z,1005.12
2023-02-19T00:18:36.292Z,1005.09
2023-02-19T00:19:37.152Z,1005.09
2023-02-19T00:20:37.310Z,1005.10
2023-02-19T00:21:36.298Z,1005.12
2023-02-19T00:22:36.284Z,1005.10
2023-02-19T00:23:36.305Z,1005.14
2023-02-19T00:24:36.269Z,1005.14
2023-02-19T00:25:36.242Z,1005.18
2023-02-19T00:26:36.248Z,1005.19
2023-02-19T00:27:36.237Z,1005.19
2023-02-19T00:28:36.431Z,1005.22
2023-02-19T00:29:36.234Z,1005.19
2023-02-19T00:30:36.220Z,1005.21
2023-02-19T00:31:36.296Z,1005.20
2023-02-19T00:32:36.224Z,1005.21
2023-02-19T00:33:36.254Z,1005.15
2023-02-19T00:34:36.176Z,1005.27
2023-02-19T00:35:36.180Z,1005.20
2023-02-19T00:36:36.315Z,1005.25
2023-02-19T00:37:36.171Z,1005.25
2023-02-19T00:38:36.902Z,1005.18
2023-02-19T00:39:37.020Z,1005.19
2023-02-19T00:40:36.140Z,1005.13
2023-02-19T00:41:37.145Z,1005.19
2023-02-19T00:42:36.131Z,1005.18
2023-02-19T00:43:37.150Z,1005.17
2023-02-19T00:44:36.130Z,1005.22
2023-02-19T00:45:36.117Z,1005.07
2023-02-19T00:46:36.229Z,1005.17
2023-02-19T00:47:36.121Z,1005.17
2023-02-19T00:48:36.931Z,1005.12
2023-02-19T00:49:36.093Z,1005.11
2023-02-19T00:50:36.089Z,1005.09
2023-02-19T00:51:36.287Z,1005.09
2023-02-19T00:52:36.072Z,1005.12
2023-02-19T00:53:36.083Z,1005.07
2023-02-19T00:54:36.089Z,1005.10
2023-02-19T00:55:36.406Z,1005.05
2023-02-19T00:56:36.036Z,1005.08
2023-02-19T00:57:36.630Z,1004.94
2023-02-19T00:58:36.639Z,1005.03
2023-02-19T00:59:36.058Z,1004.96
2023-02-19T01:00:36.038Z,1004.93
2023-02-19T01:01:36.115Z,1004.97
2023-02-19T01:02:36.058Z,1005.01
2023-02-19T01:03:36.154Z,1004.96
2023-02-19T01:04:36.052Z,1004.92
2023-02-19T01:05:35.976Z,1005.02
2023-02-19T01:06:36.089Z,1005.01
2023-02-19T01:07:36.304Z,1005.03
2023-02-19T01:08:36.176Z,1004.92
2023-02-19T01:09:36.186Z,1005.01
2023-02-19T01:10:35.988Z,1004.95
2023-02-19T01:11:36.196Z,1005.04
2023-02-19T01:12:36.206Z,1005.04
2023-02-19T01:13:36.212Z,1005.06
2023-02-19T01:14:36.005Z,1005.06
2023-02-19T01:15:36.223Z,1005.11
2023-02-19T01:16:36.232Z,1005.07
2023-02-19T01:17:36.353Z,1005.09
2023-02-19T01:18:35.949Z,1005.06
2023-02-19T01:19:36.360Z,1005.14
2023-02-19T01:20:36.370Z,1005.09
2023-02-19T01:21:36.392Z,1005.12
2023-02-19T01:22:36.183Z,1005.12
2023-02-19T01:23:36.404Z,1005.10
2023-02-19T01:24:36.397Z,1005.14
2023-02-19T01:25:35.877Z,1005.10
2023-02-19T01:26:36.009Z,1005.13
2023-02-19T01:27:35.828Z,1005.09
2023-02-19T01:28:35.894Z,1005.07
2023-02-19T01:29:36.428Z,1005.06
2023-02-19T01:30:36.063Z,1004.99
2023-02-19T01:31:36.515Z,1005.04
2023-02-19T01:32:36.454Z,1005.05
2023-02-19T01:33:36.458Z,1005.04
2023-02-19T01:34:36.045Z,1005.00
2023-02-19T01:35:35.869Z,1004.97
2023-02-19T01:36:35.795Z,1005.00
2023-02-19T01:37:35.877Z,1004.96
2023-02-19T01:38:35.875Z,1005.02
2023-02-19T01:39:35.884Z,1004.96
2023-02-19T01:40:35.993Z,1004.98
2023-02-19T01:41:35.978Z,1004.97
2023-02-19T01:42:35.785Z,1004.98
2023-02-19T01:43:35.824Z,1004.97
2023-02-19T01:44:35.788Z,1005.07
2023-02-19T01:45:35.927Z,1005.06
2023-02-19T01:46:36.259Z,1004.99
2023-02-19T01:47:36.154Z,1004.98
2023-02-19T01:48:35.745Z,1004.98
2023-02-19T01:49:36.370Z,1004.95
2023-02-19T01:50:36.236Z,1005.01
2023-02-19T01:51:35.968Z,1004.93
2023-02-19T01:52:36.384Z,1004.92
2023-02-19T01:53:35.785Z,1004.95
2023-02-19T01:54:36.485Z,1004.83
2023-02-19T01:55:36.615Z,1004.86
2023-02-19T01:56:36.414Z,1004.88
2023-02-19T01:57:35.806Z,1004.87
2023-02-19T01:58:36.014Z,1004.80
2023-02-19T01:59:36.514Z,1004.84
2023-02-19T02:00:35.682Z,1004.85
2023-02-19T02:01:35.849Z,1004.85
2023-02-19T02:02:35.612Z,1004.83
2023-02-19T02:03:36.593Z,1004.80
2023-02-19T02:04:35.774Z,1004.81
2023-02-19T02:05:35.923Z,1004.75
2023-02-19T02:06:35.661Z,1004.77
2023-02-19T02:07:35.795Z,1004.71
2023-02-19T02:08:36.299Z,1004.77
2023-02-19T02:09:35.685Z,1004.84
2023-02-19T02:10:36.364Z,1004.73
2023-02-19T02:11:35.692Z,1004.79
2023-02-19T02:12:35.574Z,1004.70
2023-02-19T02:13:35.532Z,1004.75
2023-02-19T02:14:35.532Z,1004.75
2023-02-19T02:15:35.534Z,1004.74
2023-02-19T02:16:35.535Z,1004.78
2023-02-19T02:17:35.734Z,1004.77
2023-02-19T02:18:35.544Z,1004.76
2023-02-19T02:19:35.756Z,1004.70
2023-02-19T02:20:35.766Z,1004.73
2023-02-19T02:21:35.833Z,1004.66
2023-02-19T02:22:35.912Z,1004.63
2023-02-19T02:23:35.455Z,1004.69
2023-02-19T02:24:35.463Z,1004.60
2023-02-19T02:25:35.483Z,1004.62
2023-02-19T02:26:35.451Z,1004.60
2023-02-19T02:27:35.462Z,1004.56
2023-02-19T02:28:35.432Z,1004.60
2023-02-19T02:29:35.434Z,1004.62
2023-02-19T02:30:35.466Z,1004.69
2023-02-19T02:31:35.545Z,1004.76
2023-02-19T02:32:35.406Z,1004.78
2023-02-19T02:33:35.454Z,1004.82
2023-02-19T02:34:35.453Z,1004.77
2023-02-19T02:35:35.459Z,1004.77
2023-02-19T02:36:35.470Z,1004.73
2023-02-19T02:37:35.473Z,1004.80
2023-02-19T02:38:35.365Z,1004.78
2023-02-19T02:39:35.522Z,1004.77
2023-02-19T02:40:35.375Z,1004.79
2023-02-19T02:41:35.328Z,1004.77
2023-02-19T02:42:35.325Z,1004.79
2023-02-19T02:43:35.393Z,1004.76
2023-02-19T02:44:35.325Z,1004.74
2023-02-19T02:45:35.366Z,1004.81
2023-02-19T02:46:35.301Z,1004.80
2023-02-19T02:47:35.442Z,1004.75
2023-02-19T02:48:35.483Z,1004.76
2023-02-19T02:49:35.342Z,1004.80
2023-02-19T02:50:35.269Z,1004.81
2023-02-19T02:51:35.371Z,1004.87
2023-02-19T02:52:35.369Z,1004.89
2023-02-19T02:53:35.369Z,1004.86
2023-02-19T02:54:35.386Z,1004.90
2023-02-19T02:55:35.438Z,1004.88
2023-02-19T02:56:35.396Z,1004.88
2023-02-19T02:57:35.589Z,1004.90
2023-02-19T02:58:35.630Z,1004.86
2023-02-19T02:59:35.230Z,1004.95
2023-02-19T03:00:35.198Z,1004.90
2023-02-19T03:01:35.475Z,1004.98
2023-02-19T03:02:35.646Z,1004.93
2023-02-19T03:03:35.637Z,1004.87
2023-02-19T03:04:35.179Z,1004.89
2023-02-19T03:05:35.156Z,1004.87
2023-02-19T03:06:35.273Z,1004.89
2023-02-19T03:07:35.696Z,1004.91
2023-02-19T03:08:35.142Z,1004.86
2023-02-19T03:09:35.265Z,1005.02
2023-02-19T03:10:35.169Z,1004.96
2023-02-19T03:11:35.485Z,1004.99
2023-02-19T03:12:35.718Z,1005.04
2023-02-19T03:13:35.173Z,1004.97
2023-02-19T03:14:35.105Z,1004.95
2023-02-19T03:15:35.118Z,1004.93
2023-02-19T03:16:35.360Z,1005.01
2023-02-19T03:17:35.195Z,1004.99
2023-02-19T03:18:35.102Z,1005.04
2023-02-19T03:19:35.133Z,1005.00
2023-02-19T03:20:35.146Z,1005.00
2023-02-19T03:21:35.074Z,1004.97
2023-02-19T03:22:35.060Z,1004.99
2023-02-19T03:23:35.043Z,1005.01
2023-02-19T03:24:35.041Z,1005.05
2023-02-19T03:25:35.062Z,1005.04
2023-02-19T03:26:35.072Z,1004.96
2023-02-19T03:27:35.026Z,1005.03
2023-02-19T03:28:35.018Z,1004.99
2023-02-19T03:29:35.225Z,1004.97
2023-02-19T03:30:35.301Z,1005.06
2023-02-19T03:31:35.071Z,1004.96
2023-02-19T03:32:34.977Z,1004.98
2023-02-19T03:33:35.318Z,1005.00
2023-02-19T03:34:35.244Z,1005.02
2023-02-19T03:35:35.267Z,1005.04
2023-02-19T03:36:34.998Z,1005.03
2023-02-19T03:37:35.257Z,1005.00
2023-02-19T03:38:35.252Z,1005.04
2023-02-19T03:39:35.296Z,1005.06
2023-02-19T03:40:35.287Z,1005.07
2023-02-19T03:41:35.285Z,1005.09
2023-02-19T03:42:35.294Z,1005.10
2023-02-19T03:43:34.934Z,1005.12
2023-02-19T03:44:35.318Z,1005.16
2023-02-19T03:45:34.916Z,1005.19
2023-02-19T03:46:35.314Z,1005.14
2023-02-19T03:47:35.358Z,1005.13
2023-02-19T03:48:35.374Z,1005.21
2023-02-19T03:49:35.374Z,1005.15
2023-02-19T03:50:34.858Z,1005.19
2023-02-19T03:51:34.946Z,1005.18
2023-02-19T03:52:35.368Z,1005.19
2023-02-19T03:53:35.575Z,1005.14
2023-02-19T03:54:35.215Z,1005.11
2023-02-19T03:55:35.412Z,1005.20
2023-02-19T03:56:35.182Z,1005.19
2023-02-19T03:57:34.834Z,1005.14
2023-02-19T03:58:35.607Z,1005.21
2023-02-19T03:59:35.627Z,1005.19
2023-02-19T04:00:35.218Z,1005.31
2023-02-19T04:01:35.454Z,1005.25
2023-02-19T04:02:34.932Z,1005.24
2023-02-19T04:03:34.907Z,1005.29
2023-02-19T04:04:34.921Z,1005.39
2023-02-19T04:05:34.896Z,1005.41
2023-02-19T04:06:34.908Z,1005.36
2023-02-19T04:07:35.116Z,1005.38
2023-02-19T04:08:35.095Z,1005.41
2023-02-19T04:09:35.117Z,1005.36
2023-02-19T04:10:34.778Z,1005.45
2023-02-19T04:11:35.135Z,1005.47
2023-02-19T04:12:35.419Z,1005.41
2023-02-19T04:13:35.468Z,1005.45
2023-02-19T04:14:34.727Z,1005.50
2023-02-19T04:15:34.720Z,1005.54
2023-02-19T04:16:35.167Z,1005.60
2023-02-19T04:17:35.349Z,1005.65
2023-02-19T04:18:34.693Z,1005.78
2023-02-19T04:19:34.725Z,1005.63
2023-02-19T04:20:35.064Z,1005.68
2023-02-19T04:21:35.703Z,1005.71
2023-02-19T04:22:35.596Z,1005.70
2023-02-19T04:23:34.838Z,1005.79
2023-02-19T04:24:35.182Z,1005.73
2023-02-19T04:25:35.336Z,1005.67
2023-02-19T04:26:35.465Z,1005.63
2023-02-19T04:27:35.393Z,1005.72
2023-02-19T04:28:34.631Z,1005.75
2023-02-19T04:29:34.611Z,1005.82
2023-02-19T04:30:35.660Z,1005.80
2023-02-19T04:31:35.539Z,1005.79
2023-02-19T04:32:34.812Z,1005.81
2023-02-19T04:33:34.820Z,1005.77
2023-02-19T04:34:35.035Z,1005.89
2023-02-19T04:35:35.622Z,1005.81
2023-02-19T04:36:34.852Z,1005.92
2023-02-19T04:37:34.929Z,1005.92
2023-02-19T04:38:34.664Z,1005.94
2023-02-19T04:39:34.585Z,1005.89
2023-02-19T04:40:34.704Z,1005.87
2023-02-19T04:41:34.691Z,1005.90
2023-02-19T04:42:34.685Z,1005.96
2023-02-19T04:43:34.684Z,1006.01
2023-02-19T04:44:34.702Z,1006.04
2023-02-19T04:45:34.913Z,1006.00
2023-02-19T04:46:34.936Z,1006.01
2023-02-19T04:47:34.931Z,1006.01
2023-02-19T04:48:35.133Z,1006.05
2023-02-19T04:49:34.930Z,1006.02
2023-02-19T04:50:34.834Z,1006.03
2023-02-19T04:51:34.485Z,1006.06
2023-02-19T04:52:35.172Z,1006.06
2023-02-19T04:53:35.387Z,1006.18
2023-02-19T04:54:34.994Z,1006.23
2023-02-19T04:55:35.173Z,1006.18
2023-02-19T04:56:34.592Z,1006.26
2023-02-19T04:57:34.623Z,1006.21
2023-02-19T04:58:34.413Z,1006.24
2023-02-19T04:59:34.612Z,1006.21
2023-02-19T05:00:34.406Z,1006.27
2023-02-19T05:01:34.668Z,1006.26
2023-02-19T05:02:34.836Z,1006.29
2023-02-19T05:03:34.628Z,1006.23
2023-02-19T05:04:34.778Z,1006.27
2023-02-19T05:05:34.881Z,1006.34
2023-02-19T05:06:35.064Z,1006.30
2023-02-19T05:07:35.083Z,1006.29
2023-02-19T05:08:35.090Z,1006.31
2023-02-19T05:09:34.350Z,1006.36
2023-02-19T05:10:34.463Z,1006.38
2023-02-19T05:11:34.329Z,1006.33
2023-02-19T05:12:35.108Z,1006.39
2023-02-19T05:13:34.406Z,1006.37
2023-02-19T05:14:34.338Z,1006.38
2023-02-19T05:15:34.362Z,1006.43
2023-02-19T05:16:34.548Z,1006.41
2023-02-19T05:17:34.291Z,1006.40
2023-02-19T05:18:34.556Z,1006.43
2023-02-19T05:19:34.379Z,1006.39
2023-02-19T05:20:34.555Z,1006.45
2023-02-19T05:21:34.549Z,1006.47
2023-02-19T05:22:34.549Z,1006.44
2023-02-19T05:23:34.466Z,1006.49
2023-02-19T05:24:34.584Z,1006.48
2023-02-19T05:25:34.276Z,1006.43
2023-02-19T05:26:34.364Z,1006.45
2023-02-19T05:27:34.630Z,1006.45
2023-02-19T05:28:34.596Z,1006.48
2023-02-19T05:29:34.606Z,1006.51
2023-02-19T05:30:34.639Z,1006.55
2023-02-19T05:31:34.527Z,1006.47
2023-02-19T05:32:34.404Z,1006.50
2023-02-19T05:33:34.626Z,1006.52
2023-02-19T05:34:34.624Z,1006.56
2023-02-19T05:35:34.628Z,1006.56
2023-02-19T05:36:34.183Z,1006.63
2023-02-19T05:37:34.656Z,1006.65
2023-02-19T05:38:34.672Z,1006.65
2023-02-19T05:39:34.452Z,1006.65
2023-02-19T05:40:34.163Z,1006.65
2023-02-19T05:41:34.471Z,1006.69
2023-02-19T05:42:34.482Z,1006.66
2023-02-19T05:43:34.497Z,1006.70
2023-02-19T05:44:34.730Z,1006.67
2023-02-19T05:45:34.722Z,1006.72
2023-02-19T05:46:34.576Z,1006.70
2023-02-19T05:47:34.111Z,1006.71
2023-02-19T05:48:34.738Z,1006.72
2023-02-19T05:49:34.101Z,1006.76
2023-02-19T05:50:34.161Z,1006.80
2023-02-19T05:51:34.213Z,1006.82
2023-02-19T05:52:34.208Z,1006.85
2023-02-19T05:53:34.134Z,1006.84
2023-02-19T05:54:34.391Z,1006.84
2023-02-19T05:55:34.140Z,1006.88
2023-02-19T05:56:34.437Z,1006.80
2023-02-19T05:57:34.420Z,1006.86
2023-02-19T05:58:34.379Z,1006.81
2023-02-19T05:59:34.641Z,1006.85
2023-02-19T06:00:34.381Z,1006.96
2023-02-19T06:01:34.177Z,1006.98
2023-02-19T06:02:34.621Z,1006.99
2023-02-19T06:03:34.251Z,1006.98
2023-02-19T06:04:34.468Z,1006.91
2023-02-19T06:05:34.050Z,1006.99
2023-02-19T06:06:34.620Z,1006.93
2023-02-19T06:07:34.877Z,1006.97
2023-02-19T06:08:34.228Z,1007.04
2023-02-19T06:09:34.237Z,1007.04
2023-02-19T06:10:34.448Z,1007.06
2023-02-19T06:11:34.862Z,1007.04
2023-02-19T06:12:34.756Z,1007.06
2023-02-19T06:13:34.257Z,1007.07
2023-02-19T06:14:34.667Z,1007.15
2023-02-19T06:15:33.916Z,1007.13
2023-02-19T06:16:35.357Z,1007.07
2023-02-19T06:17:33.894Z,1007.16
2023-02-19T06:18:33.893Z,1007.16
2023-02-19T06:19:33.896Z,1007.17
2023-02-19T06:20:34.370Z,1007.22
2023-02-19T06:21:34.270Z,1007.21
2023-02-19T06:22:34.554Z,1007.22
2023-02-19T06:23:33.913Z,1007.22
2023-02-19T06:24:34.536Z,1007.20
2023-02-19T06:25:33.927Z,1007.22
2023-02-19T06:26:34.074Z,1007.24
2023-02-19T06:27:33.935Z,1007.21
2023-02-19T06:28:33.950Z,1007.24
2023-02-19T06:29:33.854Z,1007.28
2023-02-19T06:30:34.076Z,1007.22
2023-02-19T06:31:34.080Z,1007.29
2023-02-19T06:32:34.011Z,1007.30
2023-02-19T06:33:33.794Z,1007.35
2023-02-19T06:34:34.205Z,1007.37
2023-02-19T06:35:34.201Z,1007.35
2023-02-19T06:36:34.230Z,1007.44
2023-02-19T06:37:34.217Z,1007.43
2023-02-19T06:38:34.426Z,1007.38
2023-02-19T06:39:34.435Z,1007.28
2023-02-19T06:40:34.025Z,1007.29
2023-02-19T06:41:33.838Z,1007.38
2023-02-19T06:42:33.821Z,1007.39
2023-02-19T06:43:33.717Z,1007.38
2023-02-19T06:44:33.779Z,1007.46
2023-02-19T06:45:33.866Z,1007.45
2023-02-19T06:46:33.701Z,1007.46
2023-02-19T06:47:33.696Z,1007.45
2023-02-19T06:48:33.721Z,1007.50
2023-02-19T06:49:33.684Z,1007.47
2023-02-19T06:50:33.687Z,1007.42
2023-02-19T06:51:33.703Z,1007.49
2023-02-19T06:52:33.706Z,1007.52
2023-02-19T06:53:33.688Z,1007.54
2023-02-19T06:54:33.645Z,1007.61
2023-02-19T06:55:33.626Z,1007.60
2023-02-19T06:56:33.668Z,1007.56
2023-02-19T06:57:33.710Z,1007.61
2023-02-19T06:58:33.712Z,1007.67
2023-02-19T06:59:33.605Z,1007.68
2023-02-19T07:00:33.751Z,1007.72
2023-02-19T07:01:33.737Z,1007.71
2023-02-19T07:02:33.592Z,1007.68
2023-02-19T07:03:33.562Z,1007.72
2023-02-19T07:04:33.635Z,1007.70
2023-02-19T07:05:33.591Z,1007.71
2023-02-19T07:06:33.587Z,1007.78
2023-02-19T07:07:33.641Z,1007.72
2023-02-19T07:08:33.539Z,1007.76
2023-02-19T07:09:33.635Z,1007.73
2023-02-19T07:10:33.598Z,1007.78
2023-02-19T07:11:34.000Z,1007.73
2023-02-19T07:12:33.517Z,1007.84
2023-02-19T07:13:33.507Z,1007.87
2023-02-19T07:14:33.674Z,1007.85
2023-02-19T07:15:33.834Z,1007.85
2023-02-19T07:16:33.960Z,1007.86
2023-02-19T07:17:33.470Z,1007.83
2023-02-19T07:18:33.485Z,1007.75
2023-02-19T07:19:33.494Z,1007.94
2023-02-19T07:20:34.109Z,1007.97
2023-02-19T07:21:33.990Z,1007.91
2023-02-19T07:22:33.515Z,1007.98
2023-02-19T07:23:33.509Z,1007.98
2023-02-19T07:24:33.694Z,1007.99
2023-02-19T07:25:34.052Z,1008.10
2023-02-19T07:26:33.412Z,1008.14
2023-02-19T07:27:33.912Z,1008.13
2023-02-19T07:28:33.925Z,1008.15
2023-02-19T07:29:33.721Z,1008.19
2023-02-19T07:30:33.543Z,1008.19
2023-02-19T07:31:33.904Z,1008.21
2023-02-19T07:32:33.740Z,1008.21
2023-02-19T07:33:33.368Z,1008.30
2023-02-19T07:34:33.404Z,1008.33
2023-02-19T07:35:33.382Z,1008.39
2023-02-19T07:36:33.416Z,1008.35
2023-02-19T07:37:33.392Z,1008.40
2023-02-19T07:38:33.384Z,1008.40
2023-02-19T07:39:33.383Z,1008.40
2023-02-19T07:40:33.395Z,1008.44
2023-02-19T07:41:33.408Z,1008.45
2023-02-19T07:42:33.424Z,1008.44
2023-02-19T07:43:33.372Z,1008.52
2023-02-19T07:44:33.435Z,1008.56
2023-02-19T07:45:33.318Z,1008.65
2023-02-19T07:46:33.442Z,1008.60
2023-02-19T07:47:33.303Z,1008.59
2023-02-19T07:48:33.501Z,1008.54
2023-02-19T07:49:33.276Z,1008.63
2023-02-19T07:50:33.538Z,1008.59
2023-02-19T07:51:33.260Z,1008.71
2023-02-19T07:52:33.511Z,1008.76
2023-02-19T07:53:33.283Z,1008.78
2023-02-19T07:54:33.227Z,1008.76
2023-02-19T07:55:33.532Z,1008.79
2023-02-19T07:56:33.502Z,1008.78
2023-02-19T07:57:33.316Z,1008.78
2023-02-19T07:58:33.228Z,1008.83
2023-02-19T07:59:33.323Z,1008.83
2023-02-19T08:00:33.325Z,1008.79
2023-02-19T08:01:33.439Z,1008.77
2023-02-19T08:02:33.281Z,1008.86
2023-02-19T08:03:33.380Z,1008.75
2023-02-19T08:04:33.206Z,1008.87
2023-02-19T08:05:33.362Z,1008.84
2023-02-19T08:06:33.411Z,1008.87
2023-02-19T08:07:33.416Z,1008.89
2023-02-19T08:08:33.179Z,1008.83
2023-02-19T08:09:33.220Z,1008.80
2023-02-19T08:10:33.446Z,1008.78
2023-02-19T08:11:33.599Z,1008.81
2023-02-19T08:12:33.608Z,1008.84
2023-02-19T08:13:33.106Z,1008.85
2023-02-19T08:14:33.214Z,1008.81
2023-02-19T08:15:33.617Z,1008.77
2023-02-19T08:16:42.591Z,1008.86
2023-02-19T08:17:33.428Z,1008.89
2023-02-19T08:18:33.228Z,1008.87
2023-02-19T08:19:33.079Z,1008.90
2023-02-19T08:20:33.125Z,1008.90
2023-02-19T08:21:34.360Z,1008.90
2023-02-19T08:22:33.076Z,1008.94
2023-02-19T08:23:33.065Z,1009.00
2023-02-19T08:24:33.122Z,1008.98
2023-02-19T08:25:33.292Z,1009.06
2023-02-19T08:26:33.281Z,1009.03
2023-02-19T08:27:33.076Z,1009.05
2023-02-19T08:28:33.305Z,1009.08
2023-02-19T08:29:33.354Z,1009.07
2023-02-19T08:30:33.221Z,1009.04
2023-02-19T08:31:33.189Z,1009.00
2023-02-19T08:32:33.141Z,1009.02
2023-02-19T08:33:33.132Z,1009.02
2023-02-19T08:34:33.229Z,1009.01
2023-02-19T08:35:33.207Z,1009.04
2023-02-19T08:36:33.375Z,1009.08
2023-02-19T08:37:32.962Z,1009.07
2023-02-19T08:38:33.363Z,1009.04
2023-02-19T08:39:33.445Z,1009.11
2023-02-19T08:40:33.368Z,1009.09
2023-02-19T08:41:33.032Z,1009.08
2023-02-19T08:42:32.940Z,1009.06
2023-02-19T08:43:33.603Z,1009.01
2023-02-19T08:44:32.922Z,1009.00
2023-02-19T08:45:32.994Z,1009.01
2023-02-19T08:46:34.517Z,1009.07
2023-02-19T08:47:33.010Z,1009.07
2023-02-19T08:48:33.016Z,1009.09
2023-02-19T08:49:33.018Z,1009.09
2023-02-19T08:50:33.224Z,1009.08
2023-02-19T08:51:33.227Z,1009.08
2023-02-19T08:52:33.456Z,1009.08
2023-02-19T08:53:32.878Z,1009.05
2023-02-19T08:54:33.045Z,1009.10
2023-02-19T08:55:32.835Z,1009.13
2023-02-19T08:56:32.870Z,1009.13
2023-02-19T08:57:33.100Z,1009.12
2023-02-19T08:58:32.879Z,1009.14
2023-02-19T08:59:32.810Z,1009.15
2023-02-19T09:00:32.794Z,1009.20
2023-02-19T09:01:32.918Z,1009.21
2023-02-19T09:02:32.895Z,1009.11
2023-02-19T09:03:32.784Z,1009.13
2023-02-19T09:04:32.881Z,1009.24
2023-02-19T09:05:33.132Z,1009.25
2023-02-19T09:06:32.797Z,1009.19
2023-02-19T09:07:33.131Z,1009.20
2023-02-19T09:08:33.258Z,1009.24
2023-02-19T09:09:32.930Z,1009.19
2023-02-19T09:10:32.821Z,1009.22
2023-02-19T09:11:33.369Z,1009.20
2023-02-19T09:12:32.766Z,1009.19
2023-02-19T09:13:32.966Z,1009.22
2023-02-19T09:14:32.785Z,1009.26
2023-02-19T09:15:33.616Z,1009.27
2023-02-19T09:16:32.691Z,1009.26
2023-02-19T09:17:33.061Z,1009.30
2023-02-19T09:18:32.993Z,1009.36
2023-02-19T09:19:32.669Z,1009.30
2023-02-19T09:20:32.652Z,1009.32
2023-02-19T09:21:32.653Z,1009.30
2023-02-19T09:22:32.649Z,1009.37
2023-02-19T09:23:32.640Z,1009.33
2023-02-19T09:24:32.653Z,1009.37
2023-02-19T09:25:32.649Z,1009.40
2023-02-19T09:26:32.649Z,1009.43
2023-02-19T09:27:32.650Z,1009.43
2023-02-19T09:28:32.602Z,1009.43
2023-02-19T09:29:32.669Z,1009.46
2023-02-19T09:30:32.710Z,1009.45
2023-02-19T09:31:32.734Z,1009.41
2023-02-19T09:32:32.682Z,1009.52
2023-02-19T09:33:32.690Z,1009.62
2023-02-19T09:34:32.601Z,1009.63
2023-02-19T09:35:32.604Z,1009.64
2023-02-19T09:36:32.628Z,1009.63
2023-02-19T09:37:34.085Z,1009.67
2023-02-19T09:38:32.615Z,1009.71
2023-02-19T09:39:32.738Z,1009.72
2023-02-19T09:40:32.529Z,1009.77
2023-02-19T09:41:32.749Z,1009.79
2023-02-19T09:42:32.850Z,1009.80
2023-02-19T09:43:32.856Z,1009.87
2023-02-19T09:44:32.874Z,1009.91
2023-02-19T09:45:32.851Z,1009.87
2023-02-19T09:46:32.586Z,1009.88
2023-02-19T09:47:32.873Z,1009.92
2023-02-19T09:48:32.457Z,1010.04
2023-02-19T09:49:33.013Z,1010.11
2023-02-19T09:50:32.626Z,1010.03
2023-02-19T09:51:32.900Z,1010.23
2023-02-19T09:52:33.024Z,1010.36
2023-02-19T09:53:32.608Z,1010.36
2023-02-19T09:54:32.405Z,1010.24
2023-02-19T09:55:32.916Z,1010.26
2023-02-19T09:56:32.638Z,1010.23
2023-02-19T09:57:32.435Z,1010.34
2023-02-19T09:58:32.649Z,1010.43
2023-02-19T09:59:32.945Z,1010.37
2023-02-19T10:00:32.653Z,1010.43
2023-02-19T10:01:32.476Z,1010.49
2023-02-19T10:02:32.767Z,1010.50
2023-02-19T10:03:33.093Z,1010.61
2023-02-19T10:04:33.092Z,1010.60
2023-02-19T10:05:32.372Z,1010.66
2023-02-19T10:06:32.598Z,1010.69
2023-02-19T10:07:33.121Z,1010.78
2023-02-19T10:08:33.127Z,1010.79
2023-02-19T10:09:32.399Z,1010.82
2023-02-19T10:10:32.319Z,1010.75
2023-02-19T10:11:33.239Z,1010.78
2023-02-19T10:12:32.355Z,1010.79
2023-02-19T10:13:32.349Z,1010.88
2023-02-19T10:14:32.339Z,1010.96
2023-02-19T10:15:32.451Z,1010.95
2023-02-19T10:16:32.461Z,1010.97
2023-02-19T10:17:32.368Z,1010.98
2023-02-19T10:18:32.308Z,1010.95
2023-02-19T10:19:32.519Z,1010.97
2023-02-19T10:20:32.288Z,1011.05
2023-02-19T10:21:32.490Z,1011.05
2023-02-19T10:22:32.496Z,1011.04
2023-02-19T10:23:32.518Z,1011.08
2023-02-19T10:24:32.220Z,1011.08
2023-02-19T10:25:32.214Z,1011.12
2023-02-19T10:26:32.237Z,1011.06
2023-02-19T10:27:32.751Z,1011.08
2023-02-19T10:28:32.855Z,1011.16
2023-02-19T10:29:32.435Z,1011.15
2023-02-19T10:30:32.677Z,1011.25
2023-02-19T10:31:32.282Z,1011.26
2023-02-19T10:32:32.753Z,1011.32
2023-02-19T10:33:32.179Z,1011.33
2023-02-19T10:34:32.213Z,1011.35
2023-02-19T10:35:32.203Z,1011.36
2023-02-19T10:36:32.598Z,1011.46
2023-02-19T10:37:32.307Z,1011.53
2023-02-19T10:38:32.122Z,1011.50
2023-02-19T10:39:32.314Z,1011.55
2023-02-19T10:40:32.516Z,1011.55
2023-02-19T10:41:32.531Z,1011.65
2023-02-19T10:42:32.737Z,1011.61
2023-02-19T10:43:32.425Z,1011.58
2023-02-19T10:44:32.747Z,1011.64
2023-02-19T10:45:32.757Z,1011.61
2023-02-19T10:46:32.137Z,1011.62
2023-02-19T10:47:32.777Z,1011.62
2023-02-19T10:48:32.072Z,1011.67
2023-02-19T10:49:32.098Z,1011.63
2023-02-19T10:50:32.089Z,1011.61
2023-02-19T10:51:32.083Z,1011.58
2023-02-19T10:52:32.183Z,1011.47
2023-02-19T10:53:32.290Z,1011.54
2023-02-19T10:54:32.298Z,1011.55
2023-02-19T10:55:32.305Z,1011.60
2023-02-19T10:56:32.429Z,1011.63
2023-02-19T10:57:32.112Z,1011.59
2023-02-19T10:58:32.330Z,1011.63
2023-02-19T10:59:32.544Z,1011.67
2023-02-19T11:00:32.140Z,1011.74
2023-02-19T11:01:32.178Z,1011.87
2023-02-19T11:02:32.665Z,1011.85
2023-02-19T11:03:32.092Z,1011.87
2023-02-19T11:04:32.027Z,1011.81
2023-02-19T11:05:31.969Z,1011.86
2023-02-19T11:06:33.970Z,1011.80
2023-02-19T11:07:31.999Z,1011.83
2023-02-19T11:08:31.938Z,1011.79
2023-02-19T11:09:31.949Z,1011.86
2023-02-19T11:10:31.896Z,1011.88
2023-02-19T11:11:32.014Z,1011.91
2023-02-19T11:12:32.028Z,1011.89
2023-02-19T11:13:32.199Z,1011.96
2023-02-19T11:14:31.868Z,1011.94
2023-02-19T11:15:31.887Z,1011.95
2023-02-19T11:16:32.267Z,1011.95
2023-02-19T11:17:32.037Z,1011.98
2023-02-19T11:18:31.852Z,1011.86
2023-02-19T11:19:31.839Z,1011.83
2023-02-19T11:20:31.832Z,1011.83
2023-02-19T11:21:32.089Z,1011.87
2023-02-19T11:22:32.107Z,1011.96
2023-02-19T11:23:32.145Z,1011.96
2023-02-19T11:24:31.884Z,1011.89
2023-02-19T11:25:31.803Z,1011.89
2023-02-19T11:26:31.893Z,1011.90
2023-02-19T11:27:31.904Z,1011.93
2023-02-19T11:28:31.914Z,1011.96
2023-02-19T11:29:31.773Z,1011.99
2023-02-19T11:30:35.242Z,1012.01
2023-02-19T11:31:32.285Z,1011.97
2023-02-19T11:32:32.144Z,1011.97
2023-02-19T11:33:31.751Z,1011.95
2023-02-19T11:34:31.740Z,1012.00
2023-02-19T11:35:31.764Z,1012.02
2023-02-19T11:36:31.853Z,1012.03
2023-02-19T11:37:31.742Z,1012.03
2023-02-19T11:38:31.705Z,1012.10
2023-02-19T11:39:32.074Z,1012.00
2023-02-19T11:40:31.872Z,1011.96
2023-02-19T11:41:31.795Z,1011.90
2023-02-19T11:42:32.365Z,1011.92
2023-02-19T11:43:32.298Z,1011.99
2023-02-19T11:44:32.413Z,1011.97
2023-02-19T11:45:31.861Z,1011.93
2023-02-19T11:46:31.725Z,1011.99
2023-02-19T11:47:31.718Z,1012.05
2023-02-19T11:48:31.734Z,1012.09
2023-02-19T11:49:31.644Z,1012.06
2023-02-19T11:50:31.674Z,1012.09
2023-02-19T11:51:31.669Z,1012.13
2023-02-19T11:52:31.683Z,1012.10
2023-02-19T11:53:31.679Z,1012.09
2023-02-19T11:54:31.605Z,1012.07
2023-02-19T11:55:31.698Z,1012.05
2023-02-19T11:56:31.708Z,1011.99
2023-02-19T11:57:31.718Z,1011.97
2023-02-19T11:58:31.600Z,1011.95
2023-02-19T11:59:31.581Z,1011.99
2023-02-19T12:00:31.719Z,1011.99
2023-02-19T12:01:31.632Z,1011.94
2023-02-19T12:02:31.693Z,1011.91
2023-02-19T12:03:31.556Z,1011.88
2023-02-19T12:04:31.549Z,1011.89
2023-02-19T12:05:31.640Z,1011.83